sensor_id;sensor_type;location;lat;lon;timestamp;temperature;humidity
18974;DHT22;9621;48.690;9.466;2023-10-13T00:01:02;13.80;99.00
18974;DHT22;9621;48.690;9.466;2023-10-13T00:03:32;13.80;99.20
18974;DHT22;9621;48.690;9.466;2023-10-13T00:05:59;13.80;99.30
18974;DHT22;9621;48.690;9.466;2023-10-13T00:08:28;13.80;99.30
18974;DHT22;9621;48.690;9.466;2023-10-13T06:33:35;6.00;99.90
18974;DHT22;9621;48.690;9.466;2023-10-13T06:36:11;6.10;99.90
18974;DHT22;9621;48.690;9.466;2023-10-13T06:38:38;6.70;99.90
18974;DHT22;9621;48.690;9.466;2023-10-13T06:41:05;7.40;99.90
18974;DHT22;9621;48.690;9.466;2023-10-13T06:43:32;8.10;99.90
18974;DHT22;9621;48.690;9.466;2023-10-13T06:46:05;8.80;99.90
18974;DHT22;9621;48.690;9.466;2023-10-13T06:48:34;9.50;99.90
18974;DHT22;9621;48.690;9.466;2023-10-13T06:51:01;10.10;99.90
18974;DHT22;9621;48.690;9.466;2023-10-13T06:53:43;10.70;99.90
18974;DHT22;9621;48.690;9.466;2023-10-13T06:56:12;11.40;99.90
18974;DHT22;9621;48.690;9.466;2023-10-13T06:58:43;11.90;99.90
18974;DHT22;9621;48.690;9.466;2023-10-13T07:01:12;12.50;99.90
18974;DHT22;9621;48.690;9.466;2023-10-13T07:03:43;13.10;99.90
18974;DHT22;9621;48.690;9.466;2023-10-13T07:06:14;13.60;99.90
18974;DHT22;9621;48.690;9.466;2023-10-13T07:08:45;14.10;99.90
18974;DHT22;9621;48.690;9.466;2023-10-13T07:11:17;14.50;99.90
18974;DHT22;9621;48.690;9.466;2023-10-13T07:13:58;14.90;99.90
18974;DHT22;9621;48.690;9.466;2023-10-13T07:16:26;15.20;99.90
18974;DHT22;9621;48.690;9.466;2023-10-13T07:19:02;15.70;99.90
18974;DHT22;9621;48.690;9.466;2023-10-13T07:21:32;16.00;99.30
18974;DHT22;9621;48.690;9.466;2023-10-13T07:23:59;16.40;98.80
18974;DHT22;9621;48.690;9.466;2023-10-13T07:26:34;16.70;98.00
18974;DHT22;9621;48.690;9.466;2023-10-13T07:29:02;17.10;97.30
18974;DHT22;9621;48.690;9.466;2023-10-13T07:31:33;17.30;96.60
18974;DHT22;9621;48.690;9.466;2023-10-13T07:34:02;17.60;96.20
18974;DHT22;9621;48.690;9.466;2023-10-13T07:36:38;17.80;95.60
18974;DHT22;9621;48.690;9.466;2023-10-13T07:39:06;18.10;95.30
18974;DHT22;9621;48.690;9.466;2023-10-13T07:41:47;18.50;94.80
18974;DHT22;9621;48.690;9.466;2023-10-13T07:44:18;18.90;94.30
18974;DHT22;9621;48.690;9.466;2023-10-13T07:46:51;19.30;93.40
18974;DHT22;9621;48.690;9.466;2023-10-13T07:49:30;19.60;92.70
18974;DHT22;9621;48.690;9.466;2023-10-13T07:52:01;20.00;91.40
18974;DHT22;9621;48.690;9.466;2023-10-13T07:54:42;20.40;91.00
18974;DHT22;9621;48.690;9.466;2023-10-13T07:57:09;20.70;90.30
18974;DHT22;9621;48.690;9.466;2023-10-13T07:59:40;21.10;90.40
18974;DHT22;9621;48.690;9.466;2023-10-13T08:02:13;21.40;88.50
18974;DHT22;9621;48.690;9.466;2023-10-13T08:05:00;21.60;87.50
18974;DHT22;9621;48.690;9.466;2023-10-13T08:07:30;21.80;85.00
18974;DHT22;9621;48.690;9.466;2023-10-13T08:09:57;22.00;85.20
18974;DHT22;9621;48.690;9.466;2023-10-13T08:12:25;22.20;84.90
18974;DHT22;9621;48.690;9.466;2023-10-13T08:14:53;22.40;83.40
18974;DHT22;9621;48.690;9.466;2023-10-13T08:17:37;22.70;82.20
18974;DHT22;9621;48.690;9.466;2023-10-13T08:20:11;23.10;80.80
18974;DHT22;9621;48.690;9.466;2023-10-13T08:22:42;23.30;78.70
18974;DHT22;9621;48.690;9.466;2023-10-13T08:25:13;23.40;78.20
18974;DHT22;9621;48.690;9.466;2023-10-13T08:27:58;23.50;77.30
18974;DHT22;9621;48.690;9.466;2023-10-13T08:30:51;23.60;77.40
18974;DHT22;9621;48.690;9.466;2023-10-13T08:33:19;23.90;77.50
18974;DHT22;9621;48.690;9.466;2023-10-13T08:35:51;24.10;76.40
18974;DHT22;9621;48.690;9.466;2023-10-13T08:38:41;24.50;74.30
18974;DHT22;9621;48.690;9.466;2023-10-13T08:41:16;24.80;73.40
18974;DHT22;9621;48.690;9.466;2023-10-13T08:44:02;25.00;72.00
18974;DHT22;9621;48.690;9.466;2023-10-13T08:46:31;24.90;69.20
18974;DHT22;9621;48.690;9.466;2023-10-13T08:49:18;24.90;70.80
18974;DHT22;9621;48.690;9.466;2023-10-13T08:51:50;24.80;70.80
18974;DHT22;9621;48.690;9.466;2023-10-13T08:54:32;24.60;70.00
18974;DHT22;9621;48.690;9.466;2023-10-13T08:57:11;24.40;70.50
18974;DHT22;9621;48.690;9.466;2023-10-13T08:59:58;24.30;71.60
18974;DHT22;9621;48.690;9.466;2023-10-13T09:02:45;24.10;72.60
18974;DHT22;9621;48.690;9.466;2023-10-13T09:05:46;24.10;72.50
18974;DHT22;9621;48.690;9.466;2023-10-13T09:08:28;24.10;73.80
18974;DHT22;9621;48.690;9.466;2023-10-13T09:11:02;24.10;72.80
18974;DHT22;9621;48.690;9.466;2023-10-13T09:13:36;24.10;74.40
18974;DHT22;9621;48.690;9.466;2023-10-13T09:16:10;24.10;74.30
18974;DHT22;9621;48.690;9.466;2023-10-13T09:18:42;24.10;74.60
18974;DHT22;9621;48.690;9.466;2023-10-13T09:21:12;24.20;73.70
18974;DHT22;9621;48.690;9.466;2023-10-13T09:23:58;24.30;71.70
18974;DHT22;9621;48.690;9.466;2023-10-13T09:26:48;24.30;72.60
18974;DHT22;9621;48.690;9.466;2023-10-13T09:29:19;24.40;72.80
18974;DHT22;9621;48.690;9.466;2023-10-13T09:31:46;24.60;71.40
18974;DHT22;9621;48.690;9.466;2023-10-13T09:34:21;24.70;69.00
18974;DHT22;9621;48.690;9.466;2023-10-13T09:36:47;25.10;68.20
18974;DHT22;9621;48.690;9.466;2023-10-13T09:39:24;25.40;67.50
18974;DHT22;9621;48.690;9.466;2023-10-13T09:42:01;25.60;65.50
18974;DHT22;9621;48.690;9.466;2023-10-13T09:44:29;25.70;66.30
18974;DHT22;9621;48.690;9.466;2023-10-13T09:47:01;26.00;65.10
18974;DHT22;9621;48.690;9.466;2023-10-13T09:49:39;26.20;64.30
18974;DHT22;9621;48.690;9.466;2023-10-13T09:52:14;26.40;62.60
18974;DHT22;9621;48.690;9.466;2023-10-13T09:54:51;26.60;61.20
18974;DHT22;9621;48.690;9.466;2023-10-13T09:57:28;26.60;60.60
18974;DHT22;9621;48.690;9.466;2023-10-13T10:00:06;26.70;60.00
18974;DHT22;9621;48.690;9.466;2023-10-13T10:02:52;26.90;58.80
18974;DHT22;9621;48.690;9.466;2023-10-13T10:05:24;27.10;59.40
18974;DHT22;9621;48.690;9.466;2023-10-13T10:07:57;27.20;59.20
18974;DHT22;9621;48.690;9.466;2023-10-13T10:13:15;27.70;57.80
18974;DHT22;9621;48.690;9.466;2023-10-13T10:15:51;27.90;57.30
18974;DHT22;9621;48.690;9.466;2023-10-13T10:18:20;28.20;58.00
18974;DHT22;9621;48.690;9.466;2023-10-13T10:20:49;28.60;58.40
18974;DHT22;9621;48.690;9.466;2023-10-13T10:23:28;28.90;57.80
18974;DHT22;9621;48.690;9.466;2023-10-13T10:26:10;29.40;55.30
18974;DHT22;9621;48.690;9.466;2023-10-13T10:28:40;29.70;53.00
18974;DHT22;9621;48.690;9.466;2023-10-13T10:31:09;30.00;53.70
18974;DHT22;9621;48.690;9.466;2023-10-13T10:33:40;30.30;53.00
18974;DHT22;9621;48.690;9.466;2023-10-13T10:36:07;30.50;52.20
18974;DHT22;9621;48.690;9.466;2023-10-13T10:38:51;30.70;51.20
18974;DHT22;9621;48.690;9.466;2023-10-13T10:41:27;30.80;48.40
18974;DHT22;9621;48.690;9.466;2023-10-13T10:44:10;30.80;48.90
18974;DHT22;9621;48.690;9.466;2023-10-13T10:46:42;30.90;48.90
18974;DHT22;9621;48.690;9.466;2023-10-13T10:49:18;30.90;48.20
18974;DHT22;9621;48.690;9.466;2023-10-13T10:51:58;30.90;48.80
18974;DHT22;9621;48.690;9.466;2023-10-13T10:54:27;30.80;47.30
18974;DHT22;9621;48.690;9.466;2023-10-13T10:56:59;30.70;48.60
18974;DHT22;9621;48.690;9.466;2023-10-13T10:59:37;30.60;48.50
18974;DHT22;9621;48.690;9.466;2023-10-13T11:02:05;30.60;47.70
18974;DHT22;9621;48.690;9.466;2023-10-13T11:04:34;30.60;48.10
18974;DHT22;9621;48.690;9.466;2023-10-13T11:07:06;30.50;47.80
18974;DHT22;9621;48.690;9.466;2023-10-13T11:09:35;30.50;48.00
18974;DHT22;9621;48.690;9.466;2023-10-13T11:12:14;30.40;47.10
18974;DHT22;9621;48.690;9.466;2023-10-13T11:14:42;30.40;46.20
18974;DHT22;9621;48.690;9.466;2023-10-13T11:17:19;30.30;47.00
18974;DHT22;9621;48.690;9.466;2023-10-13T11:19:50;30.20;45.60
18974;DHT22;9621;48.690;9.466;2023-10-13T11:22:20;30.10;46.80
18974;DHT22;9621;48.690;9.466;2023-10-13T11:24:59;29.80;46.90
18974;DHT22;9621;48.690;9.466;2023-10-13T11:27:36;29.70;47.40
18974;DHT22;9621;48.690;9.466;2023-10-13T11:30:22;29.70;46.10
18974;DHT22;9621;48.690;9.466;2023-10-13T11:32:59;29.90;46.70
18974;DHT22;9621;48.690;9.466;2023-10-13T11:35:26;30.10;44.70
18974;DHT22;9621;48.690;9.466;2023-10-13T11:38:14;30.40;44.90
18974;DHT22;9621;48.690;9.466;2023-10-13T11:40:51;30.70;44.30
18974;DHT22;9621;48.690;9.466;2023-10-13T11:43:34;30.80;44.40
18974;DHT22;9621;48.690;9.466;2023-10-13T11:46:18;31.10;43.20
18974;DHT22;9621;48.690;9.466;2023-10-13T11:49:07;31.40;41.80
18974;DHT22;9621;48.690;9.466;2023-10-13T11:51:44;31.60;40.60
18974;DHT22;9621;48.690;9.466;2023-10-13T11:54:12;31.50;40.10
18974;DHT22;9621;48.690;9.466;2023-10-13T11:56:38;31.60;40.70
18974;DHT22;9621;48.690;9.466;2023-10-13T11:59:06;31.70;39.80
18974;DHT22;9621;48.690;9.466;2023-10-13T12:01:42;31.70;39.40
18974;DHT22;9621;48.690;9.466;2023-10-13T12:04:23;31.80;39.20
18974;DHT22;9621;48.690;9.466;2023-10-13T12:07:06;31.90;38.60
18974;DHT22;9621;48.690;9.466;2023-10-13T12:09:46;32.00;37.80
18974;DHT22;9621;48.690;9.466;2023-10-13T12:12:29;32.10;37.60
18974;DHT22;9621;48.690;9.466;2023-10-13T12:14:58;32.00;37.40
18974;DHT22;9621;48.690;9.466;2023-10-13T12:17:34;32.00;37.50
18974;DHT22;9621;48.690;9.466;2023-10-13T12:20:03;32.00;37.50
18974;DHT22;9621;48.690;9.466;2023-10-13T12:22:31;32.10;37.10
18974;DHT22;9621;48.690;9.466;2023-10-13T12:25:05;32.10;36.40
18974;DHT22;9621;48.690;9.466;2023-10-13T12:27:45;32.10;36.60
18974;DHT22;9621;48.690;9.466;2023-10-13T12:30:15;32.00;36.50
18974;DHT22;9621;48.690;9.466;2023-10-13T12:32:49;31.90;36.40
18974;DHT22;9621;48.690;9.466;2023-10-13T12:35:25;31.90;36.50
18974;DHT22;9621;48.690;9.466;2023-10-13T12:37:55;31.80;36.80
18974;DHT22;9621;48.690;9.466;2023-10-13T12:40:30;31.70;36.30
18974;DHT22;9621;48.690;9.466;2023-10-13T12:43:15;31.60;36.20
18974;DHT22;9621;48.690;9.466;2023-10-13T12:46:01;31.40;36.20
18974;DHT22;9621;48.690;9.466;2023-10-13T12:48:45;31.40;36.20
18974;DHT22;9621;48.690;9.466;2023-10-13T12:51:41;31.40;36.80
18974;DHT22;9621;48.690;9.466;2023-10-13T12:54:16;31.30;36.40
18974;DHT22;9621;48.690;9.466;2023-10-13T12:56:48;31.30;36.40
18974;DHT22;9621;48.690;9.466;2023-10-13T12:59:22;31.20;36.60
18974;DHT22;9621;48.690;9.466;2023-10-13T13:01:53;31.00;36.20
18974;DHT22;9621;48.690;9.466;2023-10-13T13:04:20;30.90;36.10
18974;DHT22;9621;48.690;9.466;2023-10-13T13:06:48;30.70;36.60
18974;DHT22;9621;48.690;9.466;2023-10-13T13:09:15;30.40;37.20
18974;DHT22;9621;48.690;9.466;2023-10-13T13:11:51;30.20;37.20
18974;DHT22;9621;48.690;9.466;2023-10-13T13:14:22;29.90;37.30
18974;DHT22;9621;48.690;9.466;2023-10-13T13:16:55;29.70;37.90
18974;DHT22;9621;48.690;9.466;2023-10-13T13:19:30;29.40;38.00
18974;DHT22;9621;48.690;9.466;2023-10-13T13:21:59;29.20;38.40
18974;DHT22;9621;48.690;9.466;2023-10-13T13:24:26;29.00;38.70
18974;DHT22;9621;48.690;9.466;2023-10-13T13:26:55;28.80;38.90
18974;DHT22;9621;48.690;9.466;2023-10-13T13:29:22;28.60;39.20
18974;DHT22;9621;48.690;9.466;2023-10-13T13:31:51;28.40;39.30
18974;DHT22;9621;48.690;9.466;2023-10-13T13:34:19;28.30;39.80
18974;DHT22;9621;48.690;9.466;2023-10-13T13:36:47;28.10;40.40
18974;DHT22;9621;48.690;9.466;2023-10-13T13:39:18;28.00;40.40
18974;DHT22;9621;48.690;9.466;2023-10-13T13:41:54;27.90;40.50
18974;DHT22;9621;48.690;9.466;2023-10-13T13:44:23;27.70;40.60
18974;DHT22;9621;48.690;9.466;2023-10-13T13:46:55;27.70;40.90
18974;DHT22;9621;48.690;9.466;2023-10-13T13:49:24;27.50;41.10
18974;DHT22;9621;48.690;9.466;2023-10-13T13:52:05;27.40;41.10
18974;DHT22;9621;48.690;9.466;2023-10-13T13:54:32;27.30;41.00
18974;DHT22;9621;48.690;9.466;2023-10-13T13:56:59;27.20;41.00
18974;DHT22;9621;48.690;9.466;2023-10-13T13:59:26;27.10;41.60
18974;DHT22;9621;48.690;9.466;2023-10-13T14:02:00;27.00;41.40
18974;DHT22;9621;48.690;9.466;2023-10-13T14:04:33;26.90;41.80
18974;DHT22;9621;48.690;9.466;2023-10-13T14:07:00;26.90;41.80
18974;DHT22;9621;48.690;9.466;2023-10-13T14:09:32;26.90;42.20
18974;DHT22;9621;48.690;9.466;2023-10-13T14:12:06;26.70;41.90
18974;DHT22;9621;48.690;9.466;2023-10-13T14:14:50;26.70;42.70
18974;DHT22;9621;48.690;9.466;2023-10-13T14:17:21;26.70;42.20
18974;DHT22;9621;48.690;9.466;2023-10-13T14:19:56;26.60;42.50
18974;DHT22;9621;48.690;9.466;2023-10-13T14:22:23;26.60;42.50
18974;DHT22;9621;48.690;9.466;2023-10-13T14:24:51;26.60;42.90
18974;DHT22;9621;48.690;9.466;2023-10-13T14:27:21;26.50;42.50
18974;DHT22;9621;48.690;9.466;2023-10-13T14:29:49;26.40;42.60
18974;DHT22;9621;48.690;9.466;2023-10-13T14:32:19;26.40;42.50
18974;DHT22;9621;48.690;9.466;2023-10-13T14:34:50;26.40;42.60
18974;DHT22;9621;48.690;9.466;2023-10-13T14:37:23;26.40;42.40
18974;DHT22;9621;48.690;9.466;2023-10-13T14:39:55;26.30;42.50
18974;DHT22;9621;48.690;9.466;2023-10-13T14:42:23;26.30;42.20
18974;DHT22;9621;48.690;9.466;2023-10-13T14:44:50;26.30;42.30
18974;DHT22;9621;48.690;9.466;2023-10-13T14:47:21;26.20;41.80
18974;DHT22;9621;48.690;9.466;2023-10-13T14:49:51;26.20;41.90
18974;DHT22;9621;48.690;9.466;2023-10-13T14:52:20;26.20;41.80
18974;DHT22;9621;48.690;9.466;2023-10-13T14:54:48;26.10;41.90
18974;DHT22;9621;48.690;9.466;2023-10-13T14:57:20;26.10;41.80
18974;DHT22;9621;48.690;9.466;2023-10-13T14:59:50;26.00;41.90
18974;DHT22;9621;48.690;9.466;2023-10-13T15:02:17;26.00;41.70
18974;DHT22;9621;48.690;9.466;2023-10-13T15:04:44;25.90;41.50
18974;DHT22;9621;48.690;9.466;2023-10-13T15:07:14;25.90;41.70
18974;DHT22;9621;48.690;9.466;2023-10-13T15:09:42;25.90;42.00
18974;DHT22;9621;48.690;9.466;2023-10-13T15:12:11;25.90;41.70
18974;DHT22;9621;48.690;9.466;2023-10-13T15:14:38;25.80;41.60
18974;DHT22;9621;48.690;9.466;2023-10-13T15:17:05;25.70;41.50
18974;DHT22;9621;48.690;9.466;2023-10-13T15:19:32;25.70;41.60
18974;DHT22;9621;48.690;9.466;2023-10-13T15:22:02;25.70;41.70
18974;DHT22;9621;48.690;9.466;2023-10-13T15:24:32;25.60;41.70
18974;DHT22;9621;48.690;9.466;2023-10-13T15:27:03;25.50;41.40
18974;DHT22;9621;48.690;9.466;2023-10-13T15:29:35;25.40;41.40
18974;DHT22;9621;48.690;9.466;2023-10-13T15:32:02;25.30;41.30
18974;DHT22;9621;48.690;9.466;2023-10-13T15:34:56;25.30;41.40
18974;DHT22;9621;48.690;9.466;2023-10-13T15:37:23;25.20;41.60
18974;DHT22;9621;48.690;9.466;2023-10-13T15:39:52;25.10;41.20
18974;DHT22;9621;48.690;9.466;2023-10-13T15:42:19;25.00;41.10
18974;DHT22;9621;48.690;9.466;2023-10-13T15:44:48;25.00;41.00
18974;DHT22;9621;48.690;9.466;2023-10-13T15:47:15;24.90;41.30
18974;DHT22;9621;48.690;9.466;2023-10-13T15:49:43;24.80;41.60
18974;DHT22;9621;48.690;9.466;2023-10-13T15:52:10;24.70;41.20
18974;DHT22;9621;48.690;9.466;2023-10-13T15:54:37;24.60;41.30
18974;DHT22;9621;48.690;9.466;2023-10-13T15:57:07;24.40;41.20
18974;DHT22;9621;48.690;9.466;2023-10-13T15:59:41;24.40;41.50
18974;DHT22;9621;48.690;9.466;2023-10-13T16:02:12;24.30;41.20
18974;DHT22;9621;48.690;9.466;2023-10-13T16:04:42;24.20;41.30
18974;DHT22;9621;48.690;9.466;2023-10-13T16:07:09;24.00;41.10
18974;DHT22;9621;48.690;9.466;2023-10-13T16:09:36;23.90;41.10
18974;DHT22;9621;48.690;9.466;2023-10-13T16:12:04;23.90;41.50
18974;DHT22;9621;48.690;9.466;2023-10-13T16:14:36;23.70;41.50
18974;DHT22;9621;48.690;9.466;2023-10-13T16:17:03;23.60;41.50
18974;DHT22;9621;48.690;9.466;2023-10-13T16:19:32;23.50;41.80
18974;DHT22;9621;48.690;9.466;2023-10-13T16:21:59;23.30;42.40
18974;DHT22;9621;48.690;9.466;2023-10-13T16:24:27;23.20;42.80
18974;DHT22;9621;48.690;9.466;2023-10-13T16:26:53;23.00;43.30
18974;DHT22;9621;48.690;9.466;2023-10-13T16:29:22;22.80;43.50
18974;DHT22;9621;48.690;9.466;2023-10-13T16:31:49;22.60;43.70
18974;DHT22;9621;48.690;9.466;2023-10-13T16:34:17;22.40;44.00
18974;DHT22;9621;48.690;9.466;2023-10-13T16:36:45;22.20;44.50
18974;DHT22;9621;48.690;9.466;2023-10-13T16:39:13;22.00;44.80
18974;DHT22;9621;48.690;9.466;2023-10-13T16:41:40;21.80;45.10
18974;DHT22;9621;48.690;9.466;2023-10-13T16:44:10;21.60;46.40
18974;DHT22;9621;48.690;9.466;2023-10-13T16:46:37;21.40;46.90
18974;DHT22;9621;48.690;9.466;2023-10-13T16:49:05;21.10;46.20
18974;DHT22;9621;48.690;9.466;2023-10-13T16:51:33;20.90;45.60
18974;DHT22;9621;48.690;9.466;2023-10-13T16:54:02;20.80;45.60
18974;DHT22;9621;48.690;9.466;2023-10-13T16:56:28;20.70;45.90
18974;DHT22;9621;48.690;9.466;2023-10-13T16:58:55;20.60;46.80
18974;DHT22;9621;48.690;9.466;2023-10-13T17:01:22;20.60;46.50
18974;DHT22;9621;48.690;9.466;2023-10-13T17:03:49;20.50;47.20
18974;DHT22;9621;48.690;9.466;2023-10-13T17:06:17;20.40;47.90
18974;DHT22;9621;48.690;9.466;2023-10-13T17:08:44;20.40;49.00
18974;DHT22;9621;48.690;9.466;2023-10-13T17:11:14;20.40;48.90
18974;DHT22;9621;48.690;9.466;2023-10-13T17:13:42;20.40;49.50
18974;DHT22;9621;48.690;9.466;2023-10-13T17:16:12;20.40;49.90
18974;DHT22;9621;48.690;9.466;2023-10-13T17:18:40;20.40;50.30
18974;DHT22;9621;48.690;9.466;2023-10-13T17:21:14;20.40;50.40
18974;DHT22;9621;48.690;9.466;2023-10-13T17:23:41;20.50;51.30
18974;DHT22;9621;48.690;9.466;2023-10-13T17:26:08;20.50;50.90
18974;DHT22;9621;48.690;9.466;2023-10-13T17:28:38;20.50;51.10
18974;DHT22;9621;48.690;9.466;2023-10-13T17:31:06;20.50;51.30
18974;DHT22;9621;48.690;9.466;2023-10-13T17:33:34;20.60;51.60
18974;DHT22;9621;48.690;9.466;2023-10-13T17:36:08;20.50;51.50
18974;DHT22;9621;48.690;9.466;2023-10-13T17:38:36;20.40;51.70
18974;DHT22;9621;48.690;9.466;2023-10-13T17:41:04;20.40;52.00
18974;DHT22;9621;48.690;9.466;2023-10-13T17:43:32;20.30;52.20
18974;DHT22;9621;48.690;9.466;2023-10-13T17:46:05;20.20;52.30
18974;DHT22;9621;48.690;9.466;2023-10-13T17:48:34;20.20;53.00
18974;DHT22;9621;48.690;9.466;2023-10-13T17:51:03;20.20;52.80
18974;DHT22;9621;48.690;9.466;2023-10-13T17:53:34;20.20;53.10
18974;DHT22;9621;48.690;9.466;2023-10-13T17:56:05;20.20;52.90
18974;DHT22;9621;48.690;9.466;2023-10-13T17:58:36;20.20;53.20
18974;DHT22;9621;48.690;9.466;2023-10-13T18:01:09;20.20;53.10
18974;DHT22;9621;48.690;9.466;2023-10-13T18:03:42;20.20;53.10
18974;DHT22;9621;48.690;9.466;2023-10-13T18:06:09;20.30;53.00
18974;DHT22;9621;48.690;9.466;2023-10-13T18:08:37;20.30;53.00
18974;DHT22;9621;48.690;9.466;2023-10-13T18:11:04;20.30;53.00
18974;DHT22;9621;48.690;9.466;2023-10-13T18:13:31;20.40;53.00
18974;DHT22;9621;48.690;9.466;2023-10-13T18:15:59;20.30;52.90
18974;DHT22;9621;48.690;9.466;2023-10-13T18:18:27;20.40;52.90
18974;DHT22;9621;48.690;9.466;2023-10-13T18:21:02;20.30;53.20
18974;DHT22;9621;48.690;9.466;2023-10-13T18:23:33;20.20;53.90
18974;DHT22;9621;48.690;9.466;2023-10-13T18:26:00;20.10;53.50
18974;DHT22;9621;48.690;9.466;2023-10-13T18:28:28;19.90;53.80
18974;DHT22;9621;48.690;9.466;2023-10-13T18:30:59;19.70;53.90
18974;DHT22;9621;48.690;9.466;2023-10-13T18:33:29;19.40;54.20
18974;DHT22;9621;48.690;9.466;2023-10-13T18:35:57;19.10;54.90
18974;DHT22;9621;48.690;9.466;2023-10-13T18:38:24;18.80;55.30
18974;DHT22;9621;48.690;9.466;2023-10-13T18:40:56;18.60;56.00
18974;DHT22;9621;48.690;9.466;2023-10-13T18:43:23;18.30;56.70
18974;DHT22;9621;48.690;9.466;2023-10-13T18:45:59;18.10;57.20
18974;DHT22;9621;48.690;9.466;2023-10-13T18:48:28;17.90;58.20
18974;DHT22;9621;48.690;9.466;2023-10-13T18:50:55;17.70;57.90
18974;DHT22;9621;48.690;9.466;2023-10-13T18:53:24;17.50;58.30
18974;DHT22;9621;48.690;9.466;2023-10-13T18:55:51;17.30;58.80
18974;DHT22;9621;48.690;9.466;2023-10-13T18:58:18;17.20;59.30
18974;DHT22;9621;48.690;9.466;2023-10-13T19:00:45;17.10;60.10
18974;DHT22;9621;48.690;9.466;2023-10-13T19:03:12;16.90;60.50
18974;DHT22;9621;48.690;9.466;2023-10-13T19:05:40;16.80;60.70
18974;DHT22;9621;48.690;9.466;2023-10-13T19:08:10;16.60;61.60
18974;DHT22;9621;48.690;9.466;2023-10-13T19:10:37;16.50;61.80
18974;DHT22;9621;48.690;9.466;2023-10-13T19:13:04;16.30;62.20
18974;DHT22;9621;48.690;9.466;2023-10-13T19:15:35;16.20;62.60
18974;DHT22;9621;48.690;9.466;2023-10-13T19:18:03;16.00;63.90
18974;DHT22;9621;48.690;9.466;2023-10-13T19:20:32;15.90;63.30
18974;DHT22;9621;48.690;9.466;2023-10-13T19:23:02;15.70;63.90
18974;DHT22;9621;48.690;9.466;2023-10-13T19:25:34;15.60;64.70
18974;DHT22;9621;48.690;9.466;2023-10-13T19:28:01;15.50;65.60
18974;DHT22;9621;48.690;9.466;2023-10-13T19:30:28;15.40;65.40
18974;DHT22;9621;48.690;9.466;2023-10-13T19:32:57;15.30;65.60
18974;DHT22;9621;48.690;9.466;2023-10-13T19:35:23;15.20;66.00
18974;DHT22;9621;48.690;9.466;2023-10-13T19:37:50;15.10;66.70
18974;DHT22;9621;48.690;9.466;2023-10-13T19:40:19;15.00;67.00
18974;DHT22;9621;48.690;9.466;2023-10-13T19:42:46;14.90;67.60
18974;DHT22;9621;48.690;9.466;2023-10-13T19:45:13;14.80;67.80
18974;DHT22;9621;48.690;9.466;2023-10-13T19:47:40;14.70;68.00
18974;DHT22;9621;48.690;9.466;2023-10-13T19:50:10;14.60;68.20
18974;DHT22;9621;48.690;9.466;2023-10-13T19:52:40;14.60;68.40
18974;DHT22;9621;48.690;9.466;2023-10-13T19:55:15;14.50;68.70
18974;DHT22;9621;48.690;9.466;2023-10-13T19:57:44;14.40;70.10
18974;DHT22;9621;48.690;9.466;2023-10-13T20:00:12;14.40;70.30
18974;DHT22;9621;48.690;9.466;2023-10-13T20:02:47;14.30;70.00
18974;DHT22;9621;48.690;9.466;2023-10-13T20:05:16;14.30;70.30
18974;DHT22;9621;48.690;9.466;2023-10-13T20:07:46;14.20;70.40
18974;DHT22;9621;48.690;9.466;2023-10-13T20:10:13;14.20;70.40
18974;DHT22;9621;48.690;9.466;2023-10-13T20:12:40;14.10;70.50
18974;DHT22;9621;48.690;9.466;2023-10-13T20:15:09;14.10;70.80
18974;DHT22;9621;48.690;9.466;2023-10-13T20:17:36;14.00;71.20
18974;DHT22;9621;48.690;9.466;2023-10-13T20:20:03;14.00;71.00
18974;DHT22;9621;48.690;9.466;2023-10-13T20:22:31;13.80;71.20
18974;DHT22;9621;48.690;9.466;2023-10-13T20:24:58;13.80;71.40
18974;DHT22;9621;48.690;9.466;2023-10-13T20:27:25;13.70;72.50
18974;DHT22;9621;48.690;9.466;2023-10-13T20:29:53;13.70;72.50
18974;DHT22;9621;48.690;9.466;2023-10-13T20:32:21;13.60;73.10
18974;DHT22;9621;48.690;9.466;2023-10-13T20:34:48;13.60;73.40
18974;DHT22;9621;48.690;9.466;2023-10-13T20:37:15;13.50;73.40
18974;DHT22;9621;48.690;9.466;2023-10-13T20:39:44;13.40;73.60
18974;DHT22;9621;48.690;9.466;2023-10-13T20:42:11;13.40;74.00
18974;DHT22;9621;48.690;9.466;2023-10-13T20:44:41;13.30;74.00
18974;DHT22;9621;48.690;9.466;2023-10-13T20:47:08;13.30;74.20
18974;DHT22;9621;48.690;9.466;2023-10-13T20:49:37;13.30;74.60
18974;DHT22;9621;48.690;9.466;2023-10-13T20:52:05;13.30;75.00
18974;DHT22;9621;48.690;9.466;2023-10-13T20:54:32;13.20;74.90
18974;DHT22;9621;48.690;9.466;2023-10-13T20:56:59;13.30;75.20
18974;DHT22;9621;48.690;9.466;2023-10-13T20:59:26;13.20;75.30
18974;DHT22;9621;48.690;9.466;2023-10-13T21:01:53;13.30;75.60
18974;DHT22;9621;48.690;9.466;2023-10-13T21:04:22;13.30;75.70
18974;DHT22;9621;48.690;9.466;2023-10-13T21:06:51;13.30;75.60
18974;DHT22;9621;48.690;9.466;2023-10-13T21:09:17;13.30;76.00
18974;DHT22;9621;48.690;9.466;2023-10-13T21:11:46;13.40;75.70
18974;DHT22;9621;48.690;9.466;2023-10-13T21:14:14;13.40;75.70
18974;DHT22;9621;48.690;9.466;2023-10-13T21:16:40;13.50;75.80
18974;DHT22;9621;48.690;9.466;2023-10-13T21:19:07;13.50;75.70
18974;DHT22;9621;48.690;9.466;2023-10-13T21:21:34;13.50;75.50
18974;DHT22;9621;48.690;9.466;2023-10-13T21:24:03;13.60;75.60
18974;DHT22;9621;48.690;9.466;2023-10-13T21:26:35;13.60;75.90
18974;DHT22;9621;48.690;9.466;2023-10-13T21:29:02;13.60;75.80
18974;DHT22;9621;48.690;9.466;2023-10-13T21:31:33;13.60;76.00
18974;DHT22;9621;48.690;9.466;2023-10-13T21:34:02;13.60;75.90
18974;DHT22;9621;48.690;9.466;2023-10-13T21:36:32;13.50;76.00
18974;DHT22;9621;48.690;9.466;2023-10-13T21:39:04;13.50;76.90
18974;DHT22;9621;48.690;9.466;2023-10-13T21:41:31;13.50;76.70
18974;DHT22;9621;48.690;9.466;2023-10-13T21:44:03;13.40;76.50
18974;DHT22;9621;48.690;9.466;2023-10-13T21:46:30;13.30;76.60
18974;DHT22;9621;48.690;9.466;2023-10-13T21:48:58;13.30;76.80
18974;DHT22;9621;48.690;9.466;2023-10-13T21:51:31;13.20;77.00
18974;DHT22;9621;48.690;9.466;2023-10-13T21:53:58;13.20;77.30
18974;DHT22;9621;48.690;9.466;2023-10-13T21:56:27;13.20;77.30
18974;DHT22;9621;48.690;9.466;2023-10-13T21:58:55;13.20;77.90
18974;DHT22;9621;48.690;9.466;2023-10-13T22:01:23;13.10;77.90
18974;DHT22;9621;48.690;9.466;2023-10-13T22:03:59;13.10;78.20
18974;DHT22;9621;48.690;9.466;2023-10-13T22:06:34;13.00;78.60
18974;DHT22;9621;48.690;9.466;2023-10-13T22:09:02;13.10;78.50
18974;DHT22;9621;48.690;9.466;2023-10-13T22:11:35;12.90;78.60
18974;DHT22;9621;48.690;9.466;2023-10-13T22:14:03;12.90;79.00
18974;DHT22;9621;48.690;9.466;2023-10-13T22:16:31;12.90;79.20
18974;DHT22;9621;48.690;9.466;2023-10-13T22:18:59;12.80;78.80
18974;DHT22;9621;48.690;9.466;2023-10-13T22:21:26;12.80;79.40
18974;DHT22;9621;48.690;9.466;2023-10-13T22:23:54;12.80;79.60
18974;DHT22;9621;48.690;9.466;2023-10-13T22:26:26;12.80;79.70
18974;DHT22;9621;48.690;9.466;2023-10-13T22:28:54;12.80;80.00
18974;DHT22;9621;48.690;9.466;2023-10-13T22:31:22;12.80;80.40
18974;DHT22;9621;48.690;9.466;2023-10-13T22:33:51;12.80;80.10
18974;DHT22;9621;48.690;9.466;2023-10-13T22:36:18;12.80;80.60
18974;DHT22;9621;48.690;9.466;2023-10-13T22:38:51;12.80;80.40